Pagrindinis puslapis
METAR-TAF:

METAR-TAF

Oro uostai :

Lakselv, Norvegija

platuma: 70-04N, ilguma: 024-59E, Aukštis: 0 m

Dabartinis oras

Ataskaita buvo paskelbta 19 minutes, ne 05:20 UTC
Vėjas 5 kt nuo kintamojo kryptimis su gūsio iki 17 kt
Temperatūra 14°C
Drėgmė 77%
Slėgis 996 hPa
Matomumas 10 km arba daugiau
Mažai debesys ne aukštis 3000 ft
Su prošvaistėmis ne aukštis 9800 ft

METAR: ENNA 110520Z VRB05G17KT 9999 FEW030 BKN098 14/10 Q0996 RMK WIND 1800FT 28024KT

Laikas: 07:39 (05:39 UTC)

Prognozė

Prognozė galioja nuo 11 metu 00 UTC su 11 metu 24 UTC
Vėjas 9 kt iš Pietų
Matomumas 10 km arba daugiau
Mažai debesys ne aukštis 3000 ft
Su prošvaistėmis ne aukštis 5000 ft
lietus
Laikinai
nuo 11 metu 00 UTC su 11 metu 04 UTC
lietus
Laikinai
nuo 11 metu 00 UTC su 11 metu 24 UTC
Vėjas 15 kt iš Vakarų su gūsio iki 30 kt
Tikimybė 30% :
Laikinai
nuo 11 metu 10 UTC su 11 metu 24 UTC
lietus

TAF: ENNA 1100/1124 19009KT 9999 -RA FEW030 BKN050 TEMPO 1100/1104 RA TEMPO 1100/1124 27015G30KT PROB30 TEMPO 1110/1124 SHRA

Orai ataskaitas ir orų prognozės (METAR, TAF).

turimą stotys yra geltonos ir raudonos taškus žemėlapyje.

Perkelti pele per norėdami pamatyti stoties vardą.

Tada spustelėkite, norėdami matyti oro stebėjimo ir prognozės.

Norėdami pakeisti žemėlapį: spustelėkite ant žalios mygtukų su juodo kryžiaus žemyn,; žalią mygtuką su brūkšneliu, jei norite nutolinti; arba žalių rodyklių gretimoms žemėlapius.


METAR-TAF: